createdAt,value
2022-11-01T00:00:19.801Z,18.73
2022-11-01T00:03:25.505Z,19.25
2022-11-01T00:06:31.240Z,19.63
2022-11-01T00:09:37.802Z,18.58
2022-11-01T00:12:44.744Z,20.45
2022-11-01T00:15:49.974Z,19.45
2022-11-01T00:18:55.765Z,19.73
2022-11-01T00:22:01.104Z,19.42
2022-11-01T00:25:07.028Z,17.98
2022-11-01T00:28:12.809Z,20.00
2022-11-01T00:31:20.870Z,19.40
2022-11-01T00:34:26.316Z,18.65
2022-11-01T00:37:32.166Z,18.98
2022-11-01T00:40:37.813Z,18.67
2022-11-01T00:43:42.952Z,18.75
2022-11-01T00:46:48.080Z,17.55
2022-11-01T00:49:53.169Z,18.90
2022-11-01T00:52:58.628Z,20.35
2022-11-01T00:56:06.761Z,18.58
2022-11-01T00:59:12.057Z,20.67
2022-11-01T01:02:17.716Z,19.65
2022-11-01T01:05:23.642Z,17.23
2022-11-01T01:08:29.047Z,17.17
2022-11-01T01:11:34.723Z,17.55
2022-11-01T01:14:40.469Z,16.40
2022-11-01T01:17:46.019Z,18.73
2022-11-01T01:20:51.539Z,19.48
2022-11-01T01:23:57.038Z,19.02
2022-11-01T01:27:03.738Z,18.77
2022-11-01T01:30:09.747Z,18.73
2022-11-01T01:33:15.268Z,17.98
2022-11-01T01:36:21.279Z,19.58
2022-11-01T01:39:26.613Z,18.17
2022-11-01T01:42:41.290Z,18.58
2022-11-01T01:45:47.294Z,18.88
2022-11-01T01:48:57.977Z,17.48
2022-11-01T01:52:05.078Z,19.53
2022-11-01T01:55:12.767Z,18.88
2022-11-01T01:58:23.126Z,17.55
2022-11-01T02:01:29.634Z,17.60
2022-11-01T02:04:49.776Z,16.40
2022-11-01T02:07:57.213Z,18.88
2022-11-01T02:11:07.716Z,17.63
2022-11-01T02:14:13.783Z,17.77
2022-11-01T02:17:22.543Z,15.38
2022-11-01T02:20:43.784Z,17.00
2022-11-01T02:27:24.981Z,13.98
2022-11-01T02:30:43.788Z,14.13
2022-11-01T02:34:01.835Z,13.82
2022-11-01T02:37:47.995Z,15.55
2022-11-01T02:40:59.786Z,14.23
2022-11-01T02:44:12.849Z,16.05
2022-11-01T02:47:19.567Z,13.50
2022-11-01T02:50:28.345Z,11.88
2022-11-01T02:53:33.927Z,14.52
2022-11-01T02:56:39.724Z,14.10
2022-11-01T02:59:47.851Z,13.27
2022-11-01T03:03:03.776Z,11.00
2022-11-01T03:06:18.965Z,11.85
2022-11-01T03:09:25.477Z,12.00
2022-11-01T03:12:36.051Z,12.18
2022-11-01T03:15:57.613Z,12.13
2022-11-01T03:19:21.600Z,12.63
2022-11-01T03:22:41.671Z,14.32
2022-11-01T03:25:55.656Z,13.10
2022-11-01T03:29:07.115Z,11.75
2022-11-01T03:32:15.379Z,13.13
2022-11-01T03:35:25.017Z,12.43
2022-11-01T03:38:36.335Z,12.82
2022-11-01T03:41:49.740Z,12.98
2022-11-01T03:45:03.285Z,12.55
2022-11-01T03:48:09.027Z,13.88
2022-11-01T03:51:14.749Z,12.32
2022-11-01T03:54:20.403Z,12.18
2022-11-01T03:57:26.049Z,11.38
2022-11-01T04:00:34.752Z,12.27
2022-11-01T04:03:40.333Z,12.63
2022-11-01T04:06:45.563Z,12.20
2022-11-01T04:09:51.503Z,12.52
2022-11-01T04:12:57.879Z,13.68
2022-11-01T04:16:21.786Z,12.85
2022-11-01T04:19:45.878Z,13.57
2022-11-01T04:22:51.341Z,11.27
2022-11-01T04:25:57.241Z,11.13
2022-11-01T04:29:02.813Z,12.63
2022-11-01T04:32:08.158Z,11.82
2022-11-01T04:35:13.484Z,13.52
2022-11-01T04:38:18.736Z,11.10
2022-11-01T04:41:28.977Z,12.63
2022-11-01T04:44:34.308Z,11.50
2022-11-01T04:47:39.995Z,10.93
2022-11-01T04:50:46.282Z,11.60
2022-11-01T04:53:51.764Z,12.32
2022-11-01T04:56:59.083Z,12.15
2022-11-01T05:00:05.399Z,12.20
2022-11-01T05:03:12.293Z,12.35
2022-11-01T05:06:18.390Z,11.38
2022-11-01T05:09:24.084Z,12.00
2022-11-01T05:12:29.637Z,12.30
2022-11-01T05:15:39.991Z,11.68
2022-11-01T05:18:45.731Z,12.70
2022-11-01T05:21:51.238Z,11.75
2022-11-01T05:24:56.768Z,10.23
2022-11-01T05:28:08.535Z,10.68
2022-11-01T05:31:14.283Z,11.07
2022-11-01T05:34:19.746Z,10.63
2022-11-01T05:37:28.049Z,11.50
2022-11-01T05:40:34.201Z,11.40
2022-11-01T05:43:39.397Z,10.23
2022-11-01T05:46:45.080Z,10.38
2022-11-01T05:49:50.407Z,10.95
2022-11-01T05:52:55.885Z,11.90
2022-11-01T05:56:01.753Z,11.95
2022-11-01T05:59:06.868Z,11.00
2022-11-01T06:02:12.117Z,12.07
2022-11-01T06:05:17.453Z,12.07
2022-11-01T06:08:22.395Z,10.50
2022-11-01T06:11:28.221Z,13.05
2022-11-01T06:17:43.969Z,12.52
2022-11-01T06:20:49.776Z,11.57
2022-11-01T06:23:54.932Z,12.45
2022-11-01T06:27:00.149Z,10.90
2022-11-01T06:30:05.976Z,11.60
2022-11-01T06:33:11.332Z,12.63
2022-11-01T06:36:16.971Z,12.70
2022-11-01T06:39:22.251Z,13.45
2022-11-01T06:42:27.395Z,10.80
2022-11-01T06:45:33.162Z,12.65
2022-11-01T06:48:38.969Z,11.77
2022-11-01T06:51:44.342Z,12.40
2022-11-01T06:54:49.533Z,12.02
2022-11-01T06:58:00.284Z,14.30
2022-11-01T07:01:06.211Z,14.18
2022-11-01T07:07:22.682Z,23.95
2022-11-01T07:10:29.217Z,23.92
2022-11-01T07:13:37.427Z,24.27
2022-11-01T07:16:43.070Z,24.33
2022-11-01T07:19:48.600Z,28.80
2022-11-01T07:23:02.365Z,26.20
2022-11-01T07:26:08.026Z,25.98
2022-11-01T07:29:13.772Z,25.27
2022-11-01T07:32:19.212Z,21.90
2022-11-01T07:35:25.650Z,23.27
2022-11-01T07:38:31.069Z,24.10
2022-11-01T07:41:36.599Z,21.63
2022-11-01T07:44:45.758Z,23.70
2022-11-01T07:47:51.151Z,23.45
2022-11-01T07:50:57.691Z,23.70
2022-11-01T07:54:03.226Z,23.85
2022-11-01T07:57:09.674Z,23.17
2022-11-01T08:00:15.967Z,22.63
2022-11-01T08:03:22.521Z,22.38
2022-11-01T08:06:27.942Z,24.00
2022-11-01T08:09:34.809Z,23.88
2022-11-01T08:12:40.144Z,22.67
2022-11-01T08:15:48.000Z,23.10
2022-11-01T08:18:55.378Z,21.63
2022-11-01T08:22:01.748Z,21.05
2022-11-01T08:25:09.044Z,21.50
2022-11-01T08:28:18.574Z,21.85
2022-11-01T08:31:25.023Z,23.42
2022-11-01T08:34:31.281Z,22.55
2022-11-01T08:37:36.693Z,21.35
2022-11-01T08:40:41.866Z,21.58
2022-11-01T08:43:47.435Z,20.77
2022-11-01T08:46:56.101Z,21.17
2022-11-01T08:50:03.272Z,21.63
2022-11-01T08:53:13.800Z,21.15
2022-11-01T08:56:21.200Z,20.60
2022-11-01T08:59:26.661Z,18.00
2022-11-01T09:02:32.471Z,19.80
2022-11-01T09:05:38.161Z,18.42
2022-11-01T09:08:43.744Z,19.83
2022-11-01T09:11:49.606Z,18.45
2022-11-01T09:14:55.261Z,20.20
2022-11-01T09:18:06.357Z,16.95
2022-11-01T09:21:12.119Z,16.08
2022-11-01T09:24:18.464Z,16.05
2022-11-01T09:27:24.077Z,16.92
2022-11-01T09:30:30.734Z,15.88
2022-11-01T09:33:36.667Z,16.38
2022-11-01T09:36:42.207Z,17.77
2022-11-01T09:39:47.675Z,17.30
2022-11-01T09:42:59.114Z,17.25
2022-11-01T09:46:15.114Z,16.13
2022-11-01T09:49:31.514Z,17.25
2022-11-01T09:52:36.955Z,16.77
2022-11-01T09:56:13.043Z,16.98
2022-11-01T09:59:27.643Z,17.25
2022-11-01T10:02:57.681Z,15.63
2022-11-01T10:06:15.750Z,16.40
2022-11-01T10:09:39.578Z,15.07
2022-11-01T10:13:16.425Z,16.77
2022-11-01T10:16:36.793Z,16.00
2022-11-01T10:19:47.482Z,17.88
2022-11-01T10:22:52.816Z,17.42
2022-11-01T10:25:58.456Z,17.65
2022-11-01T10:29:07.700Z,19.05
2022-11-01T10:32:38.709Z,19.60
2022-11-01T10:35:52.159Z,19.35
2022-11-01T10:39:53.529Z,19.00
2022-11-01T10:42:46.816Z,20.10
2022-11-01T10:45:57.215Z,19.85
2022-11-01T10:49:07.157Z,20.58
2022-11-01T10:52:18.096Z,18.95
2022-11-01T10:55:49.784Z,21.13
2022-11-01T11:02:03.352Z,20.13
2022-11-01T11:05:14.160Z,22.50
2022-11-01T11:08:22.799Z,23.77
2022-11-01T11:11:37.279Z,20.88
2022-11-01T11:14:49.267Z,22.58
2022-11-01T11:17:58.496Z,23.15
2022-11-01T11:21:09.203Z,22.08
2022-11-01T11:24:21.150Z,23.17
2022-11-01T11:27:31.201Z,20.90
2022-11-01T11:30:36.875Z,21.23
2022-11-01T11:34:38.452Z,24.52
2022-11-01T11:38:06.796Z,23.77
2022-11-01T11:41:27.320Z,23.55
2022-11-01T11:44:41.457Z,25.83
2022-11-01T11:47:50.331Z,25.17
2022-11-01T11:51:16.160Z,25.73
2022-11-01T11:54:32.000Z,23.10
2022-11-01T11:57:37.469Z,25.15
2022-11-01T12:00:48.242Z,23.45
2022-11-01T12:04:05.511Z,22.85
2022-11-01T12:07:40.191Z,18.27
2022-11-01T12:10:47.007Z,17.40
2022-11-01T12:14:22.087Z,15.38
2022-11-01T12:17:45.902Z,14.50
2022-11-01T12:20:53.149Z,14.13
2022-11-01T12:24:27.408Z,13.70
2022-11-01T12:27:36.464Z,14.23
2022-11-01T12:30:43.756Z,13.23
2022-11-01T12:33:59.110Z,12.73
2022-11-01T12:37:18.253Z,13.40
2022-11-01T12:40:29.020Z,17.00
2022-11-01T12:43:43.183Z,14.52
2022-11-01T12:47:33.893Z,19.25
2022-11-01T12:50:54.501Z,12.63
2022-11-01T12:54:23.244Z,12.88
2022-11-01T12:57:28.874Z,9.95
2022-11-01T13:01:05.791Z,9.82
2022-11-01T13:04:30.338Z,13.50
2022-11-01T13:07:57.811Z,15.85
2022-11-01T13:11:26.041Z,10.88
2022-11-01T13:15:01.780Z,11.77
2022-11-01T13:18:21.451Z,10.40
2022-11-01T13:21:56.624Z,10.02
2022-11-01T13:25:13.920Z,14.45
2022-11-01T13:28:53.155Z,11.93
2022-11-01T13:32:14.274Z,11.13
2022-11-01T13:35:43.127Z,15.13
2022-11-01T13:38:59.298Z,12.77
2022-11-01T13:42:17.045Z,11.82
2022-11-01T13:45:54.286Z,12.65
2022-11-01T13:49:08.466Z,11.43
2022-11-01T13:52:13.876Z,12.07
2022-11-01T13:55:27.732Z,12.13
2022-11-01T13:58:34.126Z,11.80
2022-11-01T14:01:42.523Z,11.82
2022-11-01T14:05:03.388Z,12.32
2022-11-01T14:08:16.004Z,14.20
2022-11-01T14:11:45.254Z,11.38
2022-11-01T14:14:52.211Z,13.32
2022-11-01T14:18:11.624Z,13.02
2022-11-01T14:21:32.257Z,13.50
2022-11-01T14:25:15.887Z,11.87
2022-11-01T14:28:21.793Z,11.57
2022-11-01T14:31:32.398Z,13.57
2022-11-01T14:34:39.300Z,12.02
2022-11-01T14:37:54.274Z,11.50
2022-11-01T14:41:00.806Z,12.52
2022-11-01T14:44:18.691Z,11.68
2022-11-01T14:47:41.209Z,11.32
2022-11-01T14:51:17.141Z,11.68
2022-11-01T14:54:37.186Z,12.55
2022-11-01T14:57:43.486Z,14.52
2022-11-01T15:00:52.182Z,11.70
2022-11-01T15:04:00.275Z,12.15
2022-11-01T15:07:27.836Z,13.50
2022-11-01T15:10:43.503Z,12.10
2022-11-01T15:13:50.140Z,11.82
2022-11-01T15:16:56.834Z,12.93
2022-11-01T15:20:13.422Z,12.90
2022-11-01T15:23:27.791Z,12.95
2022-11-01T15:26:34.399Z,13.60
2022-11-01T15:29:39.528Z,16.27
2022-11-01T15:32:45.355Z,15.15
2022-11-01T15:35:56.489Z,14.57
2022-11-01T15:39:05.005Z,15.43
2022-11-01T15:42:20.418Z,15.18
2022-11-01T15:45:31.037Z,14.77
2022-11-01T15:48:38.325Z,15.90
2022-11-01T15:51:55.791Z,12.98
2022-11-01T15:55:17.344Z,14.43
2022-11-01T15:58:30.984Z,14.93
2022-11-01T16:01:38.279Z,15.45
2022-11-01T16:04:46.844Z,15.55
2022-11-01T16:07:53.019Z,15.18
2022-11-01T16:11:00.110Z,14.80
2022-11-01T16:14:14.790Z,15.55
2022-11-01T16:17:34.195Z,15.23
2022-11-01T16:20:47.438Z,16.38
2022-11-01T16:23:57.890Z,15.13
2022-11-01T16:27:08.220Z,15.05
2022-11-01T16:30:46.551Z,15.00
2022-11-01T16:33:56.689Z,14.10
2022-11-01T16:37:01.942Z,13.93
2022-11-01T16:40:27.101Z,14.88
2022-11-01T16:43:35.204Z,15.43
2022-11-01T16:46:40.931Z,15.00
2022-11-01T16:49:54.600Z,13.98
2022-11-01T16:53:00.691Z,14.73
2022-11-01T16:56:35.114Z,15.00
2022-11-01T16:59:38.379Z,13.10
2022-11-01T17:02:44.755Z,13.50
2022-11-01T17:05:56.059Z,14.18
2022-11-01T17:09:02.351Z,15.70
2022-11-01T17:12:08.722Z,13.23
2022-11-01T17:15:18.535Z,15.77
2022-11-01T17:18:32.668Z,16.08
2022-11-01T17:21:40.082Z,16.15
2022-11-01T17:24:46.345Z,18.05
2022-11-01T17:27:52.168Z,25.42
2022-11-01T17:30:57.651Z,15.77
2022-11-01T17:34:03.478Z,14.15
2022-11-01T17:37:15.052Z,14.65
2022-11-01T17:43:27.121Z,17.00
2022-11-01T17:46:32.727Z,14.80
2022-11-01T17:49:38.626Z,12.95
2022-11-01T17:52:44.331Z,12.73
2022-11-01T17:55:57.293Z,13.90
2022-11-01T17:59:02.951Z,14.32
2022-11-01T18:02:10.135Z,15.45
2022-11-01T18:05:15.814Z,13.40
2022-11-01T18:08:26.361Z,13.10
2022-11-01T18:11:51.825Z,14.73
2022-11-01T18:15:22.384Z,14.43
2022-11-01T18:18:49.316Z,13.67
2022-11-01T18:22:31.508Z,15.30
2022-11-01T18:25:41.311Z,14.82
2022-11-01T18:28:46.641Z,15.15
2022-11-01T18:32:02.708Z,14.88
2022-11-01T18:35:25.026Z,16.20
2022-11-01T18:38:42.567Z,14.60
2022-11-01T18:41:50.131Z,16.20
2022-11-01T18:45:06.636Z,15.13
2022-11-01T18:48:29.034Z,16.35
2022-11-01T18:51:34.838Z,15.55
2022-11-01T18:54:56.058Z,16.55
2022-11-01T18:58:16.726Z,15.90
2022-11-01T19:01:33.896Z,17.27
2022-11-01T19:04:43.224Z,17.60
2022-11-01T19:08:10.965Z,17.20
2022-11-01T19:11:17.765Z,17.83
2022-11-01T19:14:23.594Z,16.15
2022-11-01T19:17:37.482Z,17.13
2022-11-01T19:20:53.099Z,17.00
2022-11-01T19:23:58.602Z,17.17
2022-11-01T19:27:15.766Z,17.50
2022-11-01T19:30:29.004Z,17.95
2022-11-01T19:33:38.162Z,18.02
2022-11-01T19:36:45.126Z,18.23
2022-11-01T19:39:50.624Z,17.48
2022-11-01T19:42:58.242Z,16.98
2022-11-01T19:46:03.383Z,18.15
2022-11-01T19:49:38.015Z,17.85
2022-11-01T19:52:47.439Z,19.15
2022-11-01T19:55:58.423Z,18.63
2022-11-01T19:59:17.020Z,17.77
2022-11-01T20:02:25.017Z,19.83
2022-11-01T20:05:36.020Z,18.90
2022-11-01T20:08:44.409Z,18.15
2022-11-01T20:11:51.926Z,19.85
2022-11-01T20:14:57.691Z,19.35
2022-11-01T20:18:04.634Z,18.30
2022-11-01T20:21:11.827Z,21.02
2022-11-01T20:24:19.293Z,18.02
2022-11-01T20:27:26.390Z,20.67
2022-11-01T20:30:32.253Z,20.70
2022-11-01T20:33:39.392Z,19.25
2022-11-01T20:37:02.168Z,18.60
2022-11-01T20:40:15.067Z,19.05
2022-11-01T20:43:21.986Z,19.65
2022-11-01T20:46:27.895Z,19.50
2022-11-01T20:49:34.973Z,19.25
2022-11-01T20:52:41.741Z,19.92
2022-11-01T20:55:48.537Z,19.42
2022-11-01T20:58:55.424Z,20.25
2022-11-01T21:02:01.341Z,21.10
2022-11-01T21:05:29.650Z,19.92
2022-11-01T21:08:37.350Z,19.85
2022-11-01T21:11:46.375Z,20.15
2022-11-01T21:14:54.987Z,20.45
2022-11-01T21:18:03.426Z,19.75
2022-11-01T21:21:14.717Z,20.42
2022-11-01T21:24:36.470Z,18.75
2022-11-01T21:27:43.460Z,20.50
2022-11-01T21:30:48.900Z,20.10
2022-11-01T21:34:04.854Z,20.38
2022-11-01T21:37:10.501Z,19.02
2022-11-01T21:40:34.315Z,18.42
2022-11-01T21:43:39.812Z,18.27
2022-11-01T21:46:54.679Z,18.58
2022-11-01T21:50:00.238Z,19.48
2022-11-01T21:53:06.331Z,18.65
2022-11-01T21:56:12.303Z,18.55
2022-11-01T21:59:17.892Z,19.63
2022-11-01T22:02:23.890Z,17.40
2022-11-01T22:05:29.812Z,17.67
2022-11-01T22:08:35.456Z,18.83
2022-11-01T22:11:41.275Z,18.40
2022-11-01T22:14:46.393Z,18.83
2022-11-01T22:17:51.873Z,18.15
2022-11-01T22:20:57.417Z,18.40
2022-11-01T22:24:03.868Z,17.35
2022-11-01T22:27:09.116Z,16.50
2022-11-01T22:30:15.808Z,17.10
2022-11-01T22:33:21.595Z,16.20
2022-11-01T22:36:29.763Z,17.42
2022-11-01T22:39:36.009Z,15.57
2022-11-01T22:42:41.969Z,17.63
2022-11-01T22:45:47.751Z,18.27
2022-11-01T22:49:01.031Z,17.60
2022-11-01T22:52:34.006Z,17.90
2022-11-01T22:55:43.593Z,17.15
2022-11-01T22:58:51.281Z,18.17
2022-11-01T23:02:07.600Z,18.35
2022-11-01T23:05:13.499Z,21.05
2022-11-01T23:08:32.474Z,19.45
2022-11-01T23:11:56.494Z,20.17
2022-11-01T23:15:01.644Z,18.85
2022-11-01T23:18:23.094Z,20.80
2022-11-01T23:21:28.969Z,18.75
2022-11-01T23:24:34.407Z,18.17
2022-11-01T23:27:44.488Z,18.77
2022-11-01T23:30:50.002Z,18.00
2022-11-01T23:33:55.921Z,19.73
2022-11-01T23:37:01.074Z,19.00
2022-11-01T23:40:16.883Z,19.23
2022-11-01T23:43:32.982Z,18.00
2022-11-01T23:46:38.680Z,20.10
2022-11-01T23:49:46.804Z,19.25
2022-11-01T23:52:58.841Z,18.95
2022-11-01T23:59:12.740Z,18.52
